createdAt,value
2018-01-14T00:02:17.414Z,16.05
2018-01-14T00:04:47.018Z,16.10
2018-01-14T00:07:16.500Z,16.40
2018-01-14T00:09:46.010Z,16.25
2018-01-14T00:12:15.508Z,20.05
2018-01-14T00:14:45.018Z,16.65
2018-01-14T00:17:14.589Z,16.40
2018-01-14T00:19:44.104Z,15.25
2018-01-14T00:22:13.621Z,14.65
2018-01-14T00:24:43.137Z,14.87
2018-01-14T00:27:12.729Z,14.52
2018-01-14T00:29:42.264Z,13.62
2018-01-14T00:32:11.778Z,15.85
2018-01-14T00:34:41.275Z,14.82
2018-01-14T00:37:10.793Z,14.60
2018-01-14T00:39:40.326Z,14.32
2018-01-14T00:42:09.803Z,16.48
2018-01-14T00:44:39.347Z,22.58
2018-01-14T00:47:08.806Z,18.42
2018-01-14T00:49:38.334Z,15.05
2018-01-14T00:52:07.861Z,14.73
2018-01-14T00:54:37.378Z,15.05
2018-01-14T00:57:06.940Z,14.40
2018-01-14T00:59:36.551Z,13.13
2018-01-14T01:02:06.015Z,14.25
2018-01-14T01:04:35.558Z,13.95
2018-01-14T01:07:05.063Z,13.80
2018-01-14T01:09:34.619Z,12.93
2018-01-14T01:12:04.122Z,13.93
2018-01-14T01:14:33.604Z,13.77
2018-01-14T01:17:03.160Z,12.82
2018-01-14T01:19:32.657Z,13.77
2018-01-14T01:22:02.155Z,12.52
2018-01-14T01:24:31.685Z,12.85
2018-01-14T01:27:01.145Z,12.48
2018-01-14T01:29:30.710Z,11.75
2018-01-14T01:32:00.260Z,12.37
2018-01-14T01:34:29.810Z,11.05
2018-01-14T01:36:59.317Z,10.77
2018-01-14T01:39:28.826Z,11.77
2018-01-14T01:41:58.343Z,11.23
2018-01-14T01:44:27.865Z,11.12
2018-01-14T01:46:57.339Z,11.15
2018-01-14T01:49:26.891Z,10.90
2018-01-14T01:51:56.409Z,11.38
2018-01-14T01:54:25.897Z,11.00
2018-01-14T01:56:55.392Z,10.27
2018-01-14T01:59:24.878Z,9.60
2018-01-14T02:01:54.403Z,11.40
2018-01-14T02:04:23.893Z,10.90
2018-01-14T02:06:53.439Z,10.73
2018-01-14T02:09:22.950Z,11.07
2018-01-14T02:11:52.456Z,9.13
2018-01-14T02:14:21.915Z,11.68
2018-01-14T02:16:51.426Z,11.10
2018-01-14T02:19:20.973Z,9.85
2018-01-14T02:21:50.567Z,9.40
2018-01-14T02:24:20.064Z,9.27
2018-01-14T02:26:49.554Z,9.48
2018-01-14T02:29:19.064Z,8.70
2018-01-14T02:31:48.561Z,9.85
2018-01-14T02:34:18.034Z,9.77
2018-01-14T02:36:47.538Z,9.88
2018-01-14T02:39:17.044Z,9.82
2018-01-14T02:41:46.525Z,10.55
2018-01-14T02:44:16.053Z,10.13
2018-01-14T02:46:45.535Z,10.45
2018-01-14T02:49:15.033Z,10.35
2018-01-14T02:51:44.534Z,10.23
2018-01-14T02:54:14.049Z,10.30
2018-01-14T02:56:43.507Z,9.73
2018-01-14T02:59:13.003Z,9.75
2018-01-14T03:01:42.487Z,9.63
2018-01-14T03:04:11.989Z,9.82
2018-01-14T03:06:41.465Z,10.13
2018-01-14T03:09:10.968Z,9.07
2018-01-14T03:11:40.479Z,10.02
2018-01-14T03:14:10.015Z,10.65
2018-01-14T03:16:39.488Z,9.05
2018-01-14T03:19:08.994Z,9.25
2018-01-14T03:21:38.455Z,9.40
2018-01-14T03:24:07.955Z,8.38
2018-01-14T03:26:37.427Z,9.40
2018-01-14T03:29:06.925Z,9.30
2018-01-14T03:31:36.543Z,9.73
2018-01-14T03:34:06.011Z,9.43
2018-01-14T03:36:35.517Z,10.30
2018-01-14T03:39:04.967Z,9.95
2018-01-14T03:41:34.491Z,9.45
2018-01-14T03:44:03.947Z,9.85
2018-01-14T03:46:33.454Z,10.18
2018-01-14T03:49:02.987Z,11.70
2018-01-14T03:51:32.453Z,11.27
2018-01-14T03:54:02.002Z,10.13
2018-01-14T03:56:31.470Z,10.55
2018-01-14T03:59:00.971Z,10.68
2018-01-14T04:01:30.454Z,10.13
2018-01-14T04:04:00.800Z,10.93
2018-01-14T04:06:30.325Z,10.10
2018-01-14T04:08:59.825Z,10.55
2018-01-14T04:11:29.388Z,10.38
2018-01-14T04:13:58.915Z,11.93
2018-01-14T04:16:28.380Z,10.85
2018-01-14T04:18:57.885Z,11.85
2018-01-14T04:21:27.387Z,10.65
2018-01-14T04:23:56.976Z,11.10
2018-01-14T04:26:26.493Z,11.12
2018-01-14T04:28:55.984Z,11.45
2018-01-14T04:31:25.500Z,11.48
2018-01-14T04:33:54.980Z,10.43
2018-01-14T04:36:24.475Z,11.00
2018-01-14T04:38:53.952Z,9.73
2018-01-14T04:41:23.481Z,10.68
2018-01-14T04:43:52.947Z,11.15
2018-01-14T04:46:22.450Z,10.48
2018-01-14T04:48:52.018Z,10.75
2018-01-14T04:51:21.530Z,9.65
2018-01-14T04:53:51.026Z,8.48
2018-01-14T04:56:20.529Z,9.73
2018-01-14T04:58:50.000Z,9.85
2018-01-14T05:01:19.524Z,9.30
2018-01-14T05:03:48.995Z,10.07
2018-01-14T05:06:18.660Z,9.68
2018-01-14T05:08:48.108Z,9.25
2018-01-14T05:11:17.659Z,8.65
2018-01-14T05:13:47.133Z,8.73
2018-01-14T05:16:16.633Z,10.38
2018-01-14T05:18:46.095Z,8.50
2018-01-14T05:21:15.647Z,8.88
2018-01-14T05:23:45.136Z,8.43
2018-01-14T05:26:14.656Z,9.93
2018-01-14T05:28:44.169Z,8.23
2018-01-14T05:31:13.619Z,8.90
2018-01-14T05:33:43.113Z,9.35
2018-01-14T05:36:12.576Z,8.65
2018-01-14T05:38:42.039Z,9.20
2018-01-14T05:41:11.546Z,8.63
2018-01-14T05:43:41.044Z,9.05
2018-01-14T05:46:10.533Z,8.57
2018-01-14T05:48:40.028Z,8.20
2018-01-14T05:51:09.555Z,9.05
2018-01-14T05:53:39.092Z,8.63
2018-01-14T05:56:08.581Z,8.95
2018-01-14T05:58:38.068Z,8.40
2018-01-14T06:01:07.574Z,8.20
2018-01-14T06:03:37.126Z,8.13
2018-01-14T06:06:06.789Z,8.27
2018-01-14T06:08:36.271Z,8.35
2018-01-14T06:11:05.779Z,9.68
2018-01-14T06:13:35.274Z,8.65
2018-01-14T06:16:04.810Z,8.90
2018-01-14T06:18:34.267Z,8.77
2018-01-14T06:21:03.791Z,6.78
2018-01-14T06:23:33.250Z,7.60
2018-01-14T06:26:02.758Z,7.12
2018-01-14T06:28:32.248Z,7.97
2018-01-14T06:31:01.752Z,8.13
2018-01-14T06:33:31.216Z,7.90
2018-01-14T06:36:00.727Z,7.68
2018-01-14T06:38:30.223Z,8.10
2018-01-14T06:40:59.687Z,8.00
2018-01-14T06:43:29.193Z,7.05
2018-01-14T06:45:58.654Z,7.85
2018-01-14T06:48:28.312Z,8.32
2018-01-14T06:50:57.814Z,8.75
2018-01-14T06:53:27.269Z,8.77
2018-01-14T06:55:56.739Z,7.70
2018-01-14T06:58:26.258Z,7.55
2018-01-14T07:00:55.774Z,8.23
2018-01-14T07:03:25.240Z,7.95
2018-01-14T07:05:54.856Z,7.72
2018-01-14T07:08:24.337Z,8.20
2018-01-14T07:10:53.835Z,8.38
2018-01-14T07:13:23.345Z,8.88
2018-01-14T07:15:52.862Z,8.25
2018-01-14T07:18:22.368Z,8.90
2018-01-14T07:20:51.842Z,8.20
2018-01-14T07:23:21.311Z,8.63
2018-01-14T07:25:50.828Z,9.05
2018-01-14T07:28:20.313Z,9.52
2018-01-14T07:30:49.870Z,9.95
2018-01-14T07:33:19.378Z,9.80
2018-01-14T07:35:48.882Z,8.77
2018-01-14T07:38:18.346Z,9.13
2018-01-14T07:40:47.838Z,8.60
2018-01-14T07:43:17.365Z,8.82
2018-01-14T07:45:46.876Z,8.98
2018-01-14T07:48:16.438Z,10.20
2018-01-14T07:50:45.948Z,8.70
2018-01-14T07:53:15.421Z,10.68
2018-01-14T07:55:44.963Z,11.45
2018-01-14T07:58:14.472Z,11.00
2018-01-14T08:00:43.967Z,10.38
2018-01-14T08:03:13.502Z,11.12
2018-01-14T08:05:43.002Z,10.95
2018-01-14T08:08:12.525Z,13.40
2018-01-14T08:10:42.039Z,10.50
2018-01-14T08:13:11.522Z,11.05
2018-01-14T08:15:40.996Z,11.93
2018-01-14T08:18:10.507Z,10.40
2018-01-14T08:20:40.077Z,10.23
2018-01-14T08:23:09.554Z,11.10
2018-01-14T08:25:39.068Z,10.95
2018-01-14T08:28:08.569Z,10.93
2018-01-14T08:30:38.089Z,10.05
2018-01-14T08:33:07.548Z,11.30
2018-01-14T08:35:37.071Z,11.20
2018-01-14T08:38:06.569Z,10.68
2018-01-14T08:40:36.085Z,10.60
2018-01-14T08:43:05.627Z,10.63
2018-01-14T08:45:35.154Z,10.32
2018-01-14T08:48:04.647Z,10.73
2018-01-14T08:50:34.174Z,10.63
2018-01-14T08:53:03.707Z,10.25
2018-01-14T08:55:33.208Z,11.05
2018-01-14T08:58:02.712Z,10.70
2018-01-14T09:00:32.186Z,10.40
2018-01-14T09:03:01.709Z,11.12
2018-01-14T09:05:31.188Z,10.05
2018-01-14T09:08:00.705Z,10.10
2018-01-14T09:10:30.214Z,10.45
2018-01-14T09:12:59.712Z,11.45
2018-01-14T09:15:29.199Z,11.80
2018-01-14T09:17:58.830Z,11.80
2018-01-14T09:20:28.313Z,11.60
2018-01-14T09:22:57.842Z,10.70
2018-01-14T09:25:27.304Z,12.00
2018-01-14T09:27:56.836Z,11.35
2018-01-14T09:30:32.251Z,11.05
2018-01-14T09:33:01.796Z,11.63
2018-01-14T09:35:31.286Z,11.30
2018-01-14T09:38:01.986Z,11.10
2018-01-14T09:40:31.491Z,13.48
2018-01-14T09:43:01.100Z,12.30
2018-01-14T09:45:30.616Z,12.73
2018-01-14T09:48:00.177Z,11.75
2018-01-14T09:50:29.705Z,10.98
2018-01-14T09:52:59.196Z,11.57
2018-01-14T09:55:28.860Z,10.75
2018-01-14T09:57:58.374Z,11.25
2018-01-14T10:00:28.599Z,11.55
2018-01-14T10:02:58.144Z,12.43
2018-01-14T10:05:27.658Z,11.73
2018-01-14T10:07:57.198Z,11.65
2018-01-14T10:10:26.697Z,12.93
2018-01-14T10:12:56.241Z,12.50
2018-01-14T10:15:25.771Z,12.02
2018-01-14T10:17:55.297Z,12.90
2018-01-14T10:20:24.795Z,12.50
2018-01-14T10:22:54.356Z,12.85
2018-01-14T10:25:23.831Z,12.60
2018-01-14T10:27:53.415Z,12.43
2018-01-14T10:30:22.901Z,12.93
2018-01-14T10:32:52.436Z,11.55
2018-01-14T10:35:21.994Z,12.57
2018-01-14T10:37:51.629Z,12.60
2018-01-14T10:40:21.138Z,12.55
2018-01-14T10:42:50.621Z,13.50
2018-01-14T10:45:20.870Z,12.00
2018-01-14T10:47:50.369Z,12.07
2018-01-14T10:50:19.858Z,12.70
2018-01-14T10:52:49.320Z,12.98
2018-01-14T10:55:18.838Z,12.05
2018-01-14T10:57:48.354Z,12.15
2018-01-14T11:00:17.861Z,11.45
2018-01-14T11:02:47.345Z,13.05
2018-01-14T11:05:16.863Z,11.98
2018-01-14T11:07:46.357Z,12.20
2018-01-14T11:10:15.823Z,12.40
2018-01-14T11:12:45.318Z,12.00
2018-01-14T11:15:14.854Z,12.60
2018-01-14T11:17:44.359Z,11.45
2018-01-14T11:20:13.899Z,13.10
2018-01-14T11:22:43.506Z,11.48
2018-01-14T11:25:12.969Z,12.60
2018-01-14T11:27:42.489Z,11.75
2018-01-14T11:30:11.954Z,11.68
2018-01-14T11:32:41.451Z,12.30
2018-01-14T11:35:10.947Z,12.88
2018-01-14T11:37:40.518Z,12.93
2018-01-14T11:40:09.995Z,12.82
2018-01-14T11:42:39.600Z,12.73
2018-01-14T11:45:09.111Z,11.70
2018-01-14T11:47:38.662Z,12.65
2018-01-14T11:50:08.144Z,12.40
2018-01-14T11:52:37.662Z,11.77
2018-01-14T11:55:07.210Z,10.80
2018-01-14T11:57:36.776Z,12.75
2018-01-14T12:00:06.270Z,12.25
2018-01-14T12:02:35.782Z,10.85
2018-01-14T12:05:05.357Z,11.90
2018-01-14T12:07:34.875Z,12.37
2018-01-14T12:10:04.394Z,13.30
2018-01-14T12:12:33.877Z,11.20
2018-01-14T12:15:03.405Z,12.23
2018-01-14T12:17:32.948Z,12.48
2018-01-14T12:20:02.473Z,13.30
2018-01-14T12:22:31.995Z,13.20
2018-01-14T12:25:01.515Z,12.75
2018-01-14T12:27:31.034Z,13.15
2018-01-14T12:30:00.512Z,11.70
2018-01-14T12:32:50.012Z,12.10
2018-01-14T12:35:19.540Z,12.00
2018-01-14T12:37:49.073Z,11.75
2018-01-14T12:40:18.585Z,10.60
2018-01-14T12:42:48.130Z,10.88
2018-01-14T12:45:17.607Z,10.02
2018-01-14T12:47:47.161Z,10.18
2018-01-14T12:50:16.634Z,11.00
2018-01-14T12:52:46.183Z,10.43
2018-01-14T12:55:15.671Z,11.00
2018-01-14T12:57:45.192Z,13.70
2018-01-14T13:00:14.693Z,12.60
2018-01-14T13:02:44.272Z,11.50
2018-01-14T13:05:13.751Z,11.75
2018-01-14T13:07:43.273Z,11.68
2018-01-14T13:10:12.785Z,11.90
2018-01-14T13:12:42.296Z,12.35
2018-01-14T13:15:11.800Z,11.85
2018-01-14T13:17:41.327Z,11.23
2018-01-14T13:20:10.801Z,11.10
2018-01-14T13:22:40.323Z,9.98
2018-01-14T13:25:09.846Z,9.93
2018-01-14T13:27:39.323Z,9.95
2018-01-14T13:30:08.860Z,11.25
2018-01-14T13:32:38.437Z,10.73
2018-01-14T13:35:07.939Z,11.10
2018-01-14T13:37:37.434Z,9.57
2018-01-14T13:40:06.946Z,9.88
2018-01-14T13:42:36.416Z,10.88
2018-01-14T13:45:05.943Z,10.65
2018-01-14T13:47:35.419Z,9.93
2018-01-14T13:50:04.972Z,9.43
2018-01-14T13:52:34.454Z,8.95
2018-01-14T13:55:03.994Z,8.63
2018-01-14T13:57:33.499Z,8.95
2018-01-14T14:00:03.021Z,8.95
2018-01-14T14:02:32.569Z,8.93
2018-01-14T14:05:02.054Z,9.77
2018-01-14T14:07:31.570Z,8.95
2018-01-14T14:10:01.076Z,8.57
2018-01-14T14:12:30.642Z,9.35
2018-01-14T14:15:00.194Z,9.20
2018-01-14T14:17:29.785Z,8.77
2018-01-14T14:19:59.264Z,9.85
2018-01-14T14:22:28.763Z,9.85
2018-01-14T14:25:03.269Z,9.50
2018-01-14T14:27:32.783Z,9.55
2018-01-14T14:30:02.266Z,9.85
2018-01-14T14:32:31.729Z,9.75
2018-01-14T14:35:01.346Z,9.90
2018-01-14T14:37:30.814Z,9.73
2018-01-14T14:40:00.304Z,10.43
2018-01-14T14:42:29.824Z,9.38
2018-01-14T14:44:59.365Z,10.07
2018-01-14T14:47:28.873Z,11.55
2018-01-14T14:49:58.381Z,11.10
2018-01-14T14:52:27.949Z,11.10
2018-01-14T14:54:57.451Z,10.25
2018-01-14T14:57:26.960Z,11.90
2018-01-14T14:59:56.482Z,12.23
2018-01-14T15:02:25.947Z,11.07
2018-01-14T15:04:55.512Z,11.45
2018-01-14T15:07:25.009Z,11.15
2018-01-14T15:09:54.558Z,11.80
2018-01-14T15:12:24.035Z,11.75
2018-01-14T15:14:53.547Z,10.88
2018-01-14T15:17:23.083Z,12.32
2018-01-14T15:19:52.611Z,11.20
2018-01-14T15:22:22.112Z,12.52
2018-01-14T15:24:51.693Z,11.85
2018-01-14T15:27:21.206Z,12.95
2018-01-14T15:29:50.701Z,11.73
2018-01-14T15:32:20.192Z,13.48
2018-01-14T15:34:49.850Z,13.10
2018-01-14T15:37:19.360Z,12.60
2018-01-14T15:39:48.918Z,13.50
2018-01-14T15:42:18.440Z,12.95
2018-01-14T15:44:48.005Z,13.35
2018-01-14T15:47:17.617Z,13.45
2018-01-14T15:49:47.082Z,12.80
2018-01-14T15:52:16.623Z,13.75
2018-01-14T15:54:46.143Z,12.27
2018-01-14T15:57:15.639Z,14.43
2018-01-14T15:59:45.177Z,13.15
2018-01-14T16:02:14.662Z,14.02
2018-01-14T16:04:44.166Z,12.68
2018-01-14T16:07:13.649Z,13.95
2018-01-14T16:09:43.232Z,14.07
2018-01-14T16:12:12.743Z,15.00
2018-01-14T16:14:42.362Z,14.93
2018-01-14T16:17:11.858Z,15.48
2018-01-14T16:19:41.405Z,15.52
2018-01-14T16:22:10.929Z,14.63
2018-01-14T16:24:40.456Z,14.23
2018-01-14T16:27:10.010Z,13.57
2018-01-14T16:29:39.505Z,14.18
2018-01-14T16:32:09.032Z,14.05
2018-01-14T16:34:38.501Z,13.98
2018-01-14T16:37:08.060Z,14.55
2018-01-14T16:39:37.576Z,14.10
2018-01-14T16:42:07.080Z,15.35
2018-01-14T16:44:36.575Z,14.55
2018-01-14T16:47:07.295Z,15.55
2018-01-14T16:49:36.850Z,15.75
2018-01-14T16:52:06.362Z,16.58
2018-01-14T16:54:35.889Z,16.40
2018-01-14T16:57:05.425Z,15.90
2018-01-14T16:59:34.963Z,16.25
2018-01-14T17:02:04.481Z,14.93
2018-01-14T17:04:34.040Z,15.65
2018-01-14T17:07:03.532Z,15.20
2018-01-14T17:09:33.105Z,16.30
2018-01-14T17:12:02.598Z,16.52
2018-01-14T17:14:32.109Z,16.52
2018-01-14T17:17:01.635Z,16.42
2018-01-14T17:19:31.161Z,17.05
2018-01-14T17:22:00.657Z,15.40
2018-01-14T17:24:30.277Z,16.67
2018-01-14T17:26:59.771Z,16.40
2018-01-14T17:29:29.366Z,17.02
2018-01-14T17:31:58.897Z,16.80
2018-01-14T17:34:28.386Z,15.50
2018-01-14T17:36:57.948Z,16.75
2018-01-14T17:39:27.474Z,17.02
2018-01-14T17:41:56.993Z,16.67
2018-01-14T17:44:26.490Z,16.40
2018-01-14T17:46:56.036Z,17.02
2018-01-14T17:49:25.575Z,16.70
2018-01-14T17:51:55.129Z,17.08
2018-01-14T17:54:24.692Z,16.30
2018-01-14T17:56:54.227Z,16.00
2018-01-14T17:59:24.220Z,18.98
2018-01-14T18:01:53.743Z,16.60
2018-01-14T18:04:23.299Z,17.00
2018-01-14T18:06:52.785Z,17.40
2018-01-14T18:09:22.361Z,16.52
2018-01-14T18:11:51.837Z,15.90
2018-01-14T18:14:21.377Z,16.05
2018-01-14T18:16:56.686Z,17.20
2018-01-14T18:19:26.197Z,17.60
2018-01-14T18:21:55.730Z,17.45
2018-01-14T18:24:25.406Z,17.67
2018-01-14T18:26:54.897Z,15.45
2018-01-14T18:29:24.438Z,16.02
2018-01-14T18:31:53.930Z,18.42
2018-01-14T18:34:26.277Z,16.30
2018-01-14T18:36:56.010Z,17.60
2018-01-14T18:39:25.539Z,15.95
2018-01-14T18:41:55.047Z,17.73
2018-01-14T18:44:24.605Z,15.57
2018-01-14T18:46:54.104Z,15.60
2018-01-14T18:49:23.715Z,14.57
2018-01-14T18:51:53.231Z,15.63
2018-01-14T18:54:22.719Z,15.93
2018-01-14T18:56:52.277Z,15.98
2018-01-14T18:59:21.830Z,16.62
2018-01-14T19:01:51.349Z,17.35
2018-01-14T19:04:20.961Z,15.20
2018-01-14T19:06:50.506Z,16.62
2018-01-14T19:09:20.054Z,16.23
2018-01-14T19:11:49.599Z,15.63
2018-01-14T19:14:19.121Z,15.10
2018-01-14T19:16:48.701Z,15.10
2018-01-14T19:19:18.748Z,15.88
2018-01-14T19:21:48.303Z,14.40
2018-01-14T19:24:17.854Z,16.48
2018-01-14T19:26:47.316Z,16.35
2018-01-14T19:29:16.855Z,16.42
2018-01-14T19:31:46.381Z,15.10
2018-01-14T19:34:16.055Z,15.43
2018-01-14T19:36:45.550Z,16.25
2018-01-14T19:39:15.092Z,15.75
2018-01-14T19:41:44.622Z,16.12
2018-01-14T19:44:14.175Z,15.75
2018-01-14T19:46:43.762Z,15.27
2018-01-14T19:49:13.317Z,14.25
2018-01-14T19:51:42.887Z,14.43
2018-01-14T19:54:12.444Z,14.77
2018-01-14T19:56:42.011Z,14.80
2018-01-14T19:59:11.554Z,15.85
2018-01-14T20:01:41.104Z,17.05
2018-01-14T20:04:10.682Z,15.32
2018-01-14T20:06:40.198Z,15.73
2018-01-14T20:09:10.663Z,15.43
2018-01-14T20:11:40.217Z,15.60
2018-01-14T20:14:09.762Z,14.98
2018-01-14T20:16:39.333Z,14.82
2018-01-14T20:19:09.074Z,14.40
2018-01-14T20:21:38.644Z,15.68
2018-01-14T20:24:08.212Z,14.45
2018-01-14T20:26:37.748Z,16.45
2018-01-14T20:29:07.917Z,16.20
2018-01-14T20:31:38.086Z,15.55
2018-01-14T20:34:07.682Z,15.57
2018-01-14T20:36:38.068Z,16.67
2018-01-14T20:39:08.365Z,16.00
2018-01-14T20:41:37.922Z,17.20
2018-01-14T20:44:07.443Z,15.90
2018-01-14T20:46:37.036Z,15.55
2018-01-14T20:49:06.554Z,14.70
2018-01-14T20:51:36.174Z,14.90
2018-01-14T20:54:05.735Z,13.60
2018-01-14T20:56:35.277Z,14.60
2018-01-14T20:59:04.822Z,15.60
2018-01-14T21:01:34.337Z,14.35
2018-01-14T21:04:03.943Z,14.27
2018-01-14T21:06:33.436Z,15.85
2018-01-14T21:09:02.969Z,14.70
2018-01-14T21:11:32.448Z,14.52
2018-01-14T21:14:01.999Z,15.43
2018-01-14T21:16:31.510Z,15.48
2018-01-14T21:19:01.058Z,15.30
2018-01-14T21:21:30.563Z,14.63
2018-01-14T21:24:00.100Z,14.77
2018-01-14T21:26:29.606Z,13.40
2018-01-14T21:28:59.146Z,15.20
2018-01-14T21:31:28.652Z,14.10
2018-01-14T21:33:58.204Z,14.93
2018-01-14T21:36:27.735Z,15.85
2018-01-14T21:38:57.278Z,15.65
2018-01-14T21:41:26.906Z,14.57
2018-01-14T21:43:56.579Z,14.90
2018-01-14T21:46:26.056Z,15.00
2018-01-14T21:48:55.699Z,14.48
2018-01-14T21:51:25.251Z,15.45
2018-01-14T21:53:54.755Z,14.15
2018-01-14T21:56:24.279Z,14.45
2018-01-14T21:58:53.828Z,15.75
2018-01-14T22:01:23.358Z,13.55
2018-01-14T22:03:52.858Z,12.88
2018-01-14T22:06:27.337Z,13.50
2018-01-14T22:08:56.806Z,15.27
2018-01-14T22:11:26.323Z,13.27
2018-01-14T22:13:55.855Z,13.10
2018-01-14T22:16:25.380Z,14.85
2018-01-14T22:18:54.924Z,13.48
2018-01-14T22:21:24.418Z,13.77
2018-01-14T22:23:53.972Z,14.05
2018-01-14T22:26:23.495Z,13.50
2018-01-14T22:28:52.983Z,13.75
2018-01-14T22:31:22.517Z,13.07
2018-01-14T22:33:52.024Z,13.23
2018-01-14T22:36:21.558Z,13.43
2018-01-14T22:38:51.071Z,12.80
2018-01-14T22:41:20.552Z,13.20
2018-01-14T22:43:50.084Z,13.30
2018-01-14T22:46:19.575Z,12.70
2018-01-14T22:48:49.100Z,12.15
2018-01-14T22:51:18.630Z,12.63
2018-01-14T22:53:48.125Z,11.70
2018-01-14T22:56:17.619Z,11.75
2018-01-14T22:58:47.125Z,11.43
2018-01-14T23:01:16.598Z,13.27
2018-01-14T23:03:46.121Z,11.93
2018-01-14T23:06:15.616Z,12.37
2018-01-14T23:08:45.156Z,12.25
2018-01-14T23:11:14.657Z,11.65
2018-01-14T23:13:44.185Z,11.52
2018-01-14T23:16:13.682Z,11.73
2018-01-14T23:18:43.239Z,10.95
2018-01-14T23:21:12.738Z,11.25
2018-01-14T23:23:42.277Z,10.27
2018-01-14T23:26:11.753Z,10.25
2018-01-14T23:28:41.265Z,11.12
2018-01-14T23:31:10.790Z,11.85
2018-01-14T23:33:40.258Z,11.12
2018-01-14T23:36:09.785Z,10.90
2018-01-14T23:38:39.299Z,10.88
2018-01-14T23:41:08.891Z,9.32
2018-01-14T23:43:38.406Z,10.77
2018-01-14T23:46:07.932Z,9.23
2018-01-14T23:48:37.450Z,9.23
2018-01-14T23:51:07.005Z,9.85
2018-01-14T23:53:36.578Z,10.05
2018-01-14T23:56:06.068Z,9.38
2018-01-14T23:58:35.570Z,9.93
